sensor_id;sensor_type;location;lat;lon;timestamp;temperature;humidity
1103;DHT22;538;42.654;23.376;2022-12-18T00:00:48;7.30;92.20
1103;DHT22;538;42.654;23.376;2022-12-18T00:03:16;7.20;91.80
1103;DHT22;538;42.654;23.376;2022-12-18T00:05:47;7.20;91.70
1103;DHT22;538;42.654;23.376;2022-12-18T00:08:15;7.20;91.70
1103;DHT22;538;42.654;23.376;2022-12-18T00:10:42;7.10;91.20
1103;DHT22;538;42.654;23.376;2022-12-18T00:13:09;7.00;89.10
1103;DHT22;538;42.654;23.376;2022-12-18T00:15:37;7.00;88.70
1103;DHT22;538;42.654;23.376;2022-12-18T00:18:06;7.00;89.50
1103;DHT22;538;42.654;23.376;2022-12-18T00:20:36;7.00;89.60
1103;DHT22;538;42.654;23.376;2022-12-18T00:23:04;6.90;88.40
1103;DHT22;538;42.654;23.376;2022-12-18T00:25:33;6.80;88.30
1103;DHT22;538;42.654;23.376;2022-12-18T00:28:01;6.80;88.90
1103;DHT22;538;42.654;23.376;2022-12-18T00:30:28;6.80;89.00
1103;DHT22;538;42.654;23.376;2022-12-18T00:32:56;6.80;88.80
1103;DHT22;538;42.654;23.376;2022-12-18T00:35:25;6.70;89.20
1103;DHT22;538;42.654;23.376;2022-12-18T00:37:53;6.80;88.90
1103;DHT22;538;42.654;23.376;2022-12-18T00:40:20;6.70;89.00
1103;DHT22;538;42.654;23.376;2022-12-18T00:42:47;6.70;87.90
1103;DHT22;538;42.654;23.376;2022-12-18T00:45:26;6.60;87.70
1103;DHT22;538;42.654;23.376;2022-12-18T00:47:55;6.50;89.10
1103;DHT22;538;42.654;23.376;2022-12-18T00:50:24;6.50;90.20
1103;DHT22;538;42.654;23.376;2022-12-18T00:52:52;6.50;90.40
1103;DHT22;538;42.654;23.376;2022-12-18T00:55:19;6.50;90.90
1103;DHT22;538;42.654;23.376;2022-12-18T00:57:46;6.50;90.50
1103;DHT22;538;42.654;23.376;2022-12-18T01:00:15;6.40;88.20
1103;DHT22;538;42.654;23.376;2022-12-18T01:02:42;6.50;88.20
1103;DHT22;538;42.654;23.376;2022-12-18T01:05:11;6.40;87.90
1103;DHT22;538;42.654;23.376;2022-12-18T01:07:39;6.40;87.20
1103;DHT22;538;42.654;23.376;2022-12-18T01:10:08;6.40;87.00
1103;DHT22;538;42.654;23.376;2022-12-18T01:12:36;6.40;88.00
1103;DHT22;538;42.654;23.376;2022-12-18T01:15:05;6.40;88.50
1103;DHT22;538;42.654;23.376;2022-12-18T01:17:33;6.40;87.40
1103;DHT22;538;42.654;23.376;2022-12-18T01:20:00;6.30;86.90
1103;DHT22;538;42.654;23.376;2022-12-18T01:22:27;6.40;86.60
1103;DHT22;538;42.654;23.376;2022-12-18T01:24:56;6.20;85.00
1103;DHT22;538;42.654;23.376;2022-12-18T01:27:23;6.20;84.90
1103;DHT22;538;42.654;23.376;2022-12-18T01:29:50;6.10;85.90
1103;DHT22;538;42.654;23.376;2022-12-18T01:32:18;6.00;84.80
1103;DHT22;538;42.654;23.376;2022-12-18T01:34:45;5.80;84.60
1103;DHT22;538;42.654;23.376;2022-12-18T01:37:12;5.90;85.30
1103;DHT22;538;42.654;23.376;2022-12-18T01:39:40;5.80;85.50
1103;DHT22;538;42.654;23.376;2022-12-18T01:42:12;5.80;85.90
1103;DHT22;538;42.654;23.376;2022-12-18T01:45:06;5.80;86.90
1103;DHT22;538;42.654;23.376;2022-12-18T01:47:36;5.70;87.30
1103;DHT22;538;42.654;23.376;2022-12-18T01:50:08;5.70;87.30
1103;DHT22;538;42.654;23.376;2022-12-18T01:52:36;5.70;88.20
1103;DHT22;538;42.654;23.376;2022-12-18T01:55:08;5.80;88.40
1103;DHT22;538;42.654;23.376;2022-12-18T01:57:37;5.80;87.90
1103;DHT22;538;42.654;23.376;2022-12-18T02:00:07;5.80;87.40
1103;DHT22;538;42.654;23.376;2022-12-18T02:02:34;5.80;88.80
1103;DHT22;538;42.654;23.376;2022-12-18T02:05:03;5.80;87.50
1103;DHT22;538;42.654;23.376;2022-12-18T02:07:41;5.60;86.30
1103;DHT22;538;42.654;23.376;2022-12-18T02:10:13;5.50;86.20
1103;DHT22;538;42.654;23.376;2022-12-18T02:12:48;5.60;87.30
1103;DHT22;538;42.654;23.376;2022-12-18T02:15:21;5.50;87.20
1103;DHT22;538;42.654;23.376;2022-12-18T02:17:54;5.40;87.70
1103;DHT22;538;42.654;23.376;2022-12-18T02:20:30;5.60;88.70
1103;DHT22;538;42.654;23.376;2022-12-18T02:23:09;5.60;89.30
1103;DHT22;538;42.654;23.376;2022-12-18T02:26:06;5.60;87.50
1103;DHT22;538;42.654;23.376;2022-12-18T02:28:37;5.60;87.70
1103;DHT22;538;42.654;23.376;2022-12-18T02:31:09;5.60;87.60
1103;DHT22;538;42.654;23.376;2022-12-18T02:33:37;5.50;87.20
1103;DHT22;538;42.654;23.376;2022-12-18T02:36:07;5.60;87.70
1103;DHT22;538;42.654;23.376;2022-12-18T02:38:35;5.50;88.20
1103;DHT22;538;42.654;23.376;2022-12-18T02:41:05;5.60;87.30
1103;DHT22;538;42.654;23.376;2022-12-18T02:43:33;5.60;86.40
1103;DHT22;538;42.654;23.376;2022-12-18T02:46:01;5.50;85.60
1103;DHT22;538;42.654;23.376;2022-12-18T02:48:49;5.50;85.50
1103;DHT22;538;42.654;23.376;2022-12-18T02:51:21;5.40;86.20
1103;DHT22;538;42.654;23.376;2022-12-18T02:53:55;5.30;85.80
1103;DHT22;538;42.654;23.376;2022-12-18T02:56:30;5.30;86.50
1103;DHT22;538;42.654;23.376;2022-12-18T02:59:02;5.30;86.90
1103;DHT22;538;42.654;23.376;2022-12-18T03:01:34;5.40;87.10
1103;DHT22;538;42.654;23.376;2022-12-18T03:04:07;5.20;88.80
1103;DHT22;538;42.654;23.376;2022-12-18T03:06:39;5.20;89.50
1103;DHT22;538;42.654;23.376;2022-12-18T03:09:10;5.10;90.00
1103;DHT22;538;42.654;23.376;2022-12-18T03:11:43;5.10;90.30
1103;DHT22;538;42.654;23.376;2022-12-18T03:14:32;5.00;90.80
1103;DHT22;538;42.654;23.376;2022-12-18T03:17:02;5.00;91.00
1103;DHT22;538;42.654;23.376;2022-12-18T03:19:32;5.00;91.10
1103;DHT22;538;42.654;23.376;2022-12-18T03:22:02;5.00;91.40
1103;DHT22;538;42.654;23.376;2022-12-18T03:24:31;5.00;91.70
1103;DHT22;538;42.654;23.376;2022-12-18T03:27:02;4.90;91.60
1103;DHT22;538;42.654;23.376;2022-12-18T03:29:35;5.00;91.50
1103;DHT22;538;42.654;23.376;2022-12-18T03:32:05;4.90;90.70
1103;DHT22;538;42.654;23.376;2022-12-18T03:34:36;5.00;90.40
1103;DHT22;538;42.654;23.376;2022-12-18T03:37:05;5.00;90.10
1103;DHT22;538;42.654;23.376;2022-12-18T03:39:33;5.00;89.90
1103;DHT22;538;42.654;23.376;2022-12-18T03:42:06;4.90;89.50
1103;DHT22;538;42.654;23.376;2022-12-18T03:44:39;4.80;90.10
1103;DHT22;538;42.654;23.376;2022-12-18T03:47:09;5.00;90.20
1103;DHT22;538;42.654;23.376;2022-12-18T03:49:45;4.90;90.00
1103;DHT22;538;42.654;23.376;2022-12-18T03:52:18;4.90;87.80
1103;DHT22;538;42.654;23.376;2022-12-18T03:54:47;4.90;86.40
1103;DHT22;538;42.654;23.376;2022-12-18T03:57:19;4.90;85.40
1103;DHT22;538;42.654;23.376;2022-12-18T03:59:50;4.80;84.40
1103;DHT22;538;42.654;23.376;2022-12-18T04:02:18;4.80;84.10
1103;DHT22;538;42.654;23.376;2022-12-18T04:04:48;4.80;84.50
1103;DHT22;538;42.654;23.376;2022-12-18T04:07:17;4.70;84.70
1103;DHT22;538;42.654;23.376;2022-12-18T04:09:46;4.70;84.60
1103;DHT22;538;42.654;23.376;2022-12-18T04:12:16;4.70;85.60
1103;DHT22;538;42.654;23.376;2022-12-18T04:14:44;4.80;86.00
1103;DHT22;538;42.654;23.376;2022-12-18T04:17:11;4.90;85.70
1103;DHT22;538;42.654;23.376;2022-12-18T04:19:38;4.90;85.30
1103;DHT22;538;42.654;23.376;2022-12-18T04:22:05;4.90;84.10
1103;DHT22;538;42.654;23.376;2022-12-18T04:24:32;4.90;81.10
1103;DHT22;538;42.654;23.376;2022-12-18T04:26:59;4.90;80.50
1103;DHT22;538;42.654;23.376;2022-12-18T04:29:27;4.90;79.40
1103;DHT22;538;42.654;23.376;2022-12-18T04:31:55;4.80;76.60
1103;DHT22;538;42.654;23.376;2022-12-18T04:34:22;4.80;76.20
1103;DHT22;538;42.654;23.376;2022-12-18T04:36:49;4.80;74.30
1103;DHT22;538;42.654;23.376;2022-12-18T04:39:19;4.80;74.00
1103;DHT22;538;42.654;23.376;2022-12-18T04:41:46;4.70;73.80
1103;DHT22;538;42.654;23.376;2022-12-18T04:44:13;5.10;74.90
1103;DHT22;538;42.654;23.376;2022-12-18T04:46:42;4.80;74.00
1103;DHT22;538;42.654;23.376;2022-12-18T04:49:09;4.80;72.40
1103;DHT22;538;42.654;23.376;2022-12-18T04:51:38;4.80;72.90
1103;DHT22;538;42.654;23.376;2022-12-18T04:54:05;4.70;73.20
1103;DHT22;538;42.654;23.376;2022-12-18T04:56:32;4.80;71.60
1103;DHT22;538;42.654;23.376;2022-12-18T04:59:00;4.70;69.10
1103;DHT22;538;42.654;23.376;2022-12-18T05:01:27;4.70;69.30
1103;DHT22;538;42.654;23.376;2022-12-18T05:03:55;4.80;68.30
1103;DHT22;538;42.654;23.376;2022-12-18T05:06:22;4.60;63.40
1103;DHT22;538;42.654;23.376;2022-12-18T05:08:49;4.70;63.40
1103;DHT22;538;42.654;23.376;2022-12-18T05:11:16;4.60;63.90
1103;DHT22;538;42.654;23.376;2022-12-18T05:13:44;4.60;60.70
1103;DHT22;538;42.654;23.376;2022-12-18T05:16:11;4.60;61.90
1103;DHT22;538;42.654;23.376;2022-12-18T05:18:39;4.70;63.50
1103;DHT22;538;42.654;23.376;2022-12-18T05:21:07;4.60;62.10
1103;DHT22;538;42.654;23.376;2022-12-18T05:23:34;4.60;63.10
1103;DHT22;538;42.654;23.376;2022-12-18T05:26:03;4.60;62.20
1103;DHT22;538;42.654;23.376;2022-12-18T05:28:31;4.50;62.10
1103;DHT22;538;42.654;23.376;2022-12-18T05:31:01;4.50;62.80
1103;DHT22;538;42.654;23.376;2022-12-18T05:33:30;4.50;63.10
1103;DHT22;538;42.654;23.376;2022-12-18T05:36:04;4.40;63.70
1103;DHT22;538;42.654;23.376;2022-12-18T05:38:34;4.30;62.60
1103;DHT22;538;42.654;23.376;2022-12-18T05:41:02;4.30;62.40
1103;DHT22;538;42.654;23.376;2022-12-18T05:43:30;4.30;63.00
1103;DHT22;538;42.654;23.376;2022-12-18T05:45:57;4.30;62.60
1103;DHT22;538;42.654;23.376;2022-12-18T05:48:24;4.40;62.70
1103;DHT22;538;42.654;23.376;2022-12-18T05:50:51;4.40;62.50
1103;DHT22;538;42.654;23.376;2022-12-18T05:53:19;4.30;62.30
1103;DHT22;538;42.654;23.376;2022-12-18T05:55:48;4.40;61.70
1103;DHT22;538;42.654;23.376;2022-12-18T05:58:15;4.30;60.90
1103;DHT22;538;42.654;23.376;2022-12-18T06:00:45;4.40;60.00
1103;DHT22;538;42.654;23.376;2022-12-18T06:03:13;4.40;59.20
1103;DHT22;538;42.654;23.376;2022-12-18T06:05:42;4.20;57.80
1103;DHT22;538;42.654;23.376;2022-12-18T06:08:10;4.20;58.20
1103;DHT22;538;42.654;23.376;2022-12-18T06:10:38;4.20;59.10
1103;DHT22;538;42.654;23.376;2022-12-18T06:13:07;4.30;59.00
1103;DHT22;538;42.654;23.376;2022-12-18T06:15:36;4.20;59.90
1103;DHT22;538;42.654;23.376;2022-12-18T06:18:03;4.30;59.30
1103;DHT22;538;42.654;23.376;2022-12-18T06:20:30;4.10;58.60
1103;DHT22;538;42.654;23.376;2022-12-18T06:22:58;4.20;58.50
1103;DHT22;538;42.654;23.376;2022-12-18T06:25:25;4.10;57.90
1103;DHT22;538;42.654;23.376;2022-12-18T06:27:52;4.10;57.80
1103;DHT22;538;42.654;23.376;2022-12-18T06:30:21;4.00;58.00
1103;DHT22;538;42.654;23.376;2022-12-18T06:32:49;4.10;59.80
1103;DHT22;538;42.654;23.376;2022-12-18T06:35:16;4.10;60.00
1103;DHT22;538;42.654;23.376;2022-12-18T06:37:43;4.10;59.80
1103;DHT22;538;42.654;23.376;2022-12-18T06:40:10;4.70;59.20
1103;DHT22;538;42.654;23.376;2022-12-18T06:42:37;4.20;58.70
1103;DHT22;538;42.654;23.376;2022-12-18T06:45:05;4.40;58.80
1103;DHT22;538;42.654;23.376;2022-12-18T06:47:34;4.40;59.10
1103;DHT22;538;42.654;23.376;2022-12-18T06:50:01;4.20;59.00
1103;DHT22;538;42.654;23.376;2022-12-18T06:52:31;4.20;58.10
1103;DHT22;538;42.654;23.376;2022-12-18T06:54:59;4.40;56.20
1103;DHT22;538;42.654;23.376;2022-12-18T06:57:26;4.30;55.40
1103;DHT22;538;42.654;23.376;2022-12-18T06:59:54;4.20;54.40
1103;DHT22;538;42.654;23.376;2022-12-18T07:02:21;4.20;54.90
1103;DHT22;538;42.654;23.376;2022-12-18T07:04:52;4.20;54.00
1103;DHT22;538;42.654;23.376;2022-12-18T07:07:19;4.20;52.70
1103;DHT22;538;42.654;23.376;2022-12-18T07:09:46;4.30;51.50
1103;DHT22;538;42.654;23.376;2022-12-18T07:12:14;4.30;50.20
1103;DHT22;538;42.654;23.376;2022-12-18T07:14:41;4.40;50.30
1103;DHT22;538;42.654;23.376;2022-12-18T07:17:09;4.50;48.60
1103;DHT22;538;42.654;23.376;2022-12-18T07:19:36;4.50;49.00
1103;DHT22;538;42.654;23.376;2022-12-18T07:22:04;4.50;47.30
1103;DHT22;538;42.654;23.376;2022-12-18T07:24:32;4.40;47.90
1103;DHT22;538;42.654;23.376;2022-12-18T07:27:00;4.40;49.20
1103;DHT22;538;42.654;23.376;2022-12-18T07:29:27;4.50;49.30
1103;DHT22;538;42.654;23.376;2022-12-18T07:31:54;4.60;50.10
1103;DHT22;538;42.654;23.376;2022-12-18T07:34:21;4.60;48.60
1103;DHT22;538;42.654;23.376;2022-12-18T07:36:48;4.60;47.40
1103;DHT22;538;42.654;23.376;2022-12-18T07:39:17;4.60;47.40
1103;DHT22;538;42.654;23.376;2022-12-18T07:41:44;4.60;46.80
1103;DHT22;538;42.654;23.376;2022-12-18T07:44:32;4.80;47.10
1103;DHT22;538;42.654;23.376;2022-12-18T07:47:00;4.60;47.50
1103;DHT22;538;42.654;23.376;2022-12-18T07:49:27;4.60;47.30
1103;DHT22;538;42.654;23.376;2022-12-18T07:51:55;4.70;46.60
1103;DHT22;538;42.654;23.376;2022-12-18T07:54:24;4.50;46.10
1103;DHT22;538;42.654;23.376;2022-12-18T07:56:51;4.50;46.30
1103;DHT22;538;42.654;23.376;2022-12-18T07:59:19;4.60;47.30
1103;DHT22;538;42.654;23.376;2022-12-18T08:01:46;4.60;47.40
1103;DHT22;538;42.654;23.376;2022-12-18T08:04:13;4.60;47.40
1103;DHT22;538;42.654;23.376;2022-12-18T08:06:40;4.50;47.30
1103;DHT22;538;42.654;23.376;2022-12-18T08:09:07;4.50;48.80
1103;DHT22;538;42.654;23.376;2022-12-18T08:11:36;4.30;49.60
1103;DHT22;538;42.654;23.376;2022-12-18T08:14:03;4.40;50.00
1103;DHT22;538;42.654;23.376;2022-12-18T08:16:30;4.80;50.20
1103;DHT22;538;42.654;23.376;2022-12-18T08:18:57;4.40;50.50
1103;DHT22;538;42.654;23.376;2022-12-18T08:21:25;4.30;50.50
1103;DHT22;538;42.654;23.376;2022-12-18T08:23:54;4.30;51.50
1103;DHT22;538;42.654;23.376;2022-12-18T08:26:21;4.30;50.90
1103;DHT22;538;42.654;23.376;2022-12-18T08:28:50;4.30;50.60
1103;DHT22;538;42.654;23.376;2022-12-18T08:31:18;4.30;50.10
1103;DHT22;538;42.654;23.376;2022-12-18T08:33:48;4.20;48.80
1103;DHT22;538;42.654;23.376;2022-12-18T08:36:16;4.30;48.40
1103;DHT22;538;42.654;23.376;2022-12-18T08:38:43;4.20;47.90
1103;DHT22;538;42.654;23.376;2022-12-18T08:41:14;4.40;48.40
1103;DHT22;538;42.654;23.376;2022-12-18T08:43:42;4.20;49.50
1103;DHT22;538;42.654;23.376;2022-12-18T08:46:32;4.20;48.50
1103;DHT22;538;42.654;23.376;2022-12-18T08:49:00;4.40;47.90
1103;DHT22;538;42.654;23.376;2022-12-18T08:51:28;4.20;47.30
1103;DHT22;538;42.654;23.376;2022-12-18T08:53:54;4.30;47.20
1103;DHT22;538;42.654;23.376;2022-12-18T08:56:22;4.10;46.90
1103;DHT22;538;42.654;23.376;2022-12-18T08:58:51;4.10;47.00
1103;DHT22;538;42.654;23.376;2022-12-18T09:01:18;4.20;47.00
1103;DHT22;538;42.654;23.376;2022-12-18T09:03:47;4.10;45.30
1103;DHT22;538;42.654;23.376;2022-12-18T09:06:16;4.20;44.70
1103;DHT22;538;42.654;23.376;2022-12-18T09:08:43;4.20;45.00
1103;DHT22;538;42.654;23.376;2022-12-18T09:11:14;4.10;44.50
1103;DHT22;538;42.654;23.376;2022-12-18T09:13:41;5.00;42.40
1103;DHT22;538;42.654;23.376;2022-12-18T09:16:08;4.20;40.10
1103;DHT22;538;42.654;23.376;2022-12-18T09:18:36;4.30;41.20
1103;DHT22;538;42.654;23.376;2022-12-18T09:21:13;4.30;40.00
1103;DHT22;538;42.654;23.376;2022-12-18T09:23:40;4.30;40.70
1103;DHT22;538;42.654;23.376;2022-12-18T09:26:08;4.30;40.50
1103;DHT22;538;42.654;23.376;2022-12-18T09:28:36;4.30;40.90
1103;DHT22;538;42.654;23.376;2022-12-18T09:31:07;4.50;40.90
1103;DHT22;538;42.654;23.376;2022-12-18T09:33:34;4.40;40.70
1103;DHT22;538;42.654;23.376;2022-12-18T09:36:03;4.50;40.20
1103;DHT22;538;42.654;23.376;2022-12-18T09:38:33;4.60;39.50
1103;DHT22;538;42.654;23.376;2022-12-18T09:41:04;4.50;38.40
1103;DHT22;538;42.654;23.376;2022-12-18T09:43:40;4.60;36.90
1103;DHT22;538;42.654;23.376;2022-12-18T09:46:11;4.50;36.70
1103;DHT22;538;42.654;23.376;2022-12-18T09:48:45;4.50;35.10
1103;DHT22;538;42.654;23.376;2022-12-18T09:51:15;4.50;37.80
1103;DHT22;538;42.654;23.376;2022-12-18T09:53:50;4.60;36.90
1103;DHT22;538;42.654;23.376;2022-12-18T09:56:19;4.80;38.20
1103;DHT22;538;42.654;23.376;2022-12-18T09:58:55;4.80;35.30
1103;DHT22;538;42.654;23.376;2022-12-18T10:01:24;4.90;34.60
1103;DHT22;538;42.654;23.376;2022-12-18T10:03:52;5.00;33.40
1103;DHT22;538;42.654;23.376;2022-12-18T10:06:23;5.10;35.30
1103;DHT22;538;42.654;23.376;2022-12-18T10:08:59;5.10;31.40
1103;DHT22;538;42.654;23.376;2022-12-18T10:11:39;5.10;32.40
1103;DHT22;538;42.654;23.376;2022-12-18T10:14:17;5.20;32.10
1103;DHT22;538;42.654;23.376;2022-12-18T10:16:58;5.10;29.70
1103;DHT22;538;42.654;23.376;2022-12-18T10:19:39;5.00;29.80
1103;DHT22;538;42.654;23.376;2022-12-18T10:22:22;5.10;32.20
1103;DHT22;538;42.654;23.376;2022-12-18T10:25:03;5.00;29.80
1103;DHT22;538;42.654;23.376;2022-12-18T10:27:32;5.00;30.60
1103;DHT22;538;42.654;23.376;2022-12-18T10:30:04;4.90;29.70
1103;DHT22;538;42.654;23.376;2022-12-18T10:32:44;4.90;29.80
1103;DHT22;538;42.654;23.376;2022-12-18T10:35:17;4.90;30.40
1103;DHT22;538;42.654;23.376;2022-12-18T10:38:20;4.90;29.70
1103;DHT22;538;42.654;23.376;2022-12-18T10:40:54;4.80;29.70
1103;DHT22;538;42.654;23.376;2022-12-18T10:43:26;5.00;31.30
1103;DHT22;538;42.654;23.376;2022-12-18T10:46:04;5.20;30.40
1103;DHT22;538;42.654;23.376;2022-12-18T10:48:36;5.10;29.90
1103;DHT22;538;42.654;23.376;2022-12-18T10:51:07;5.20;29.90
1103;DHT22;538;42.654;23.376;2022-12-18T10:53:36;5.10;31.30
1103;DHT22;538;42.654;23.376;2022-12-18T10:56:06;5.30;31.90
1103;DHT22;538;42.654;23.376;2022-12-18T10:58:35;5.30;31.50
1103;DHT22;538;42.654;23.376;2022-12-18T11:01:06;5.30;30.60
1103;DHT22;538;42.654;23.376;2022-12-18T11:03:36;5.40;31.30
1103;DHT22;538;42.654;23.376;2022-12-18T11:06:06;5.40;30.50
1103;DHT22;538;42.654;23.376;2022-12-18T11:08:34;5.60;32.10
1103;DHT22;538;42.654;23.376;2022-12-18T11:11:02;5.50;29.10
1103;DHT22;538;42.654;23.376;2022-12-18T11:13:32;5.50;29.10
1103;DHT22;538;42.654;23.376;2022-12-18T11:16:00;5.40;28.30
1103;DHT22;538;42.654;23.376;2022-12-18T11:18:29;5.40;28.50
1103;DHT22;538;42.654;23.376;2022-12-18T11:20:59;5.40;27.80
1103;DHT22;538;42.654;23.376;2022-12-18T11:23:28;5.30;27.20
1103;DHT22;538;42.654;23.376;2022-12-18T11:25:58;5.10;26.60
1103;DHT22;538;42.654;23.376;2022-12-18T11:28:35;5.10;27.40
1103;DHT22;538;42.654;23.376;2022-12-18T11:31:17;5.10;27.10
1103;DHT22;538;42.654;23.376;2022-12-18T11:33:49;5.10;26.80
1103;DHT22;538;42.654;23.376;2022-12-18T11:36:20;5.00;27.00
1103;DHT22;538;42.654;23.376;2022-12-18T11:38:49;5.00;27.20
1103;DHT22;538;42.654;23.376;2022-12-18T11:41:26;5.00;27.20
1103;DHT22;538;42.654;23.376;2022-12-18T11:44:22;5.00;27.40
1103;DHT22;538;42.654;23.376;2022-12-18T11:46:55;5.00;28.00
1103;DHT22;538;42.654;23.376;2022-12-18T11:49:28;5.00;27.80
1103;DHT22;538;42.654;23.376;2022-12-18T11:52:01;5.00;27.40
1103;DHT22;538;42.654;23.376;2022-12-18T11:54:31;5.10;27.10
1103;DHT22;538;42.654;23.376;2022-12-18T11:57:05;5.10;27.00
1103;DHT22;538;42.654;23.376;2022-12-18T11:59:49;5.10;27.60
1103;DHT22;538;42.654;23.376;2022-12-18T12:02:34;5.00;26.50
1103;DHT22;538;42.654;23.376;2022-12-18T12:05:26;5.00;26.10
1103;DHT22;538;42.654;23.376;2022-12-18T12:07:58;5.00;25.90
1103;DHT22;538;42.654;23.376;2022-12-18T12:10:37;5.10;26.00
1103;DHT22;538;42.654;23.376;2022-12-18T12:13:20;5.10;25.70
1103;DHT22;538;42.654;23.376;2022-12-18T12:16:03;5.10;25.90
1103;DHT22;538;42.654;23.376;2022-12-18T12:18:43;5.20;25.80
1103;DHT22;538;42.654;23.376;2022-12-18T12:21:20;5.10;26.30
1103;DHT22;538;42.654;23.376;2022-12-18T12:23:57;5.00;27.30
1103;DHT22;538;42.654;23.376;2022-12-18T12:26:31;4.10;27.20
1103;DHT22;538;42.654;23.376;2022-12-18T12:29:09;5.10;28.10
1103;DHT22;538;42.654;23.376;2022-12-18T12:31:53;5.20;27.40
1103;DHT22;538;42.654;23.376;2022-12-18T12:34:26;5.30;27.40
1103;DHT22;538;42.654;23.376;2022-12-18T12:37:08;5.30;27.10
1103;DHT22;538;42.654;23.376;2022-12-18T12:39:41;5.40;26.80
1103;DHT22;538;42.654;23.376;2022-12-18T12:42:15;5.30;26.90
1103;DHT22;538;42.654;23.376;2022-12-18T12:45:05;5.20;26.80
1103;DHT22;538;42.654;23.376;2022-12-18T12:47:38;5.30;27.00
1103;DHT22;538;42.654;23.376;2022-12-18T12:50:15;5.30;27.70
1103;DHT22;538;42.654;23.376;2022-12-18T12:52:45;5.30;27.40
1103;DHT22;538;42.654;23.376;2022-12-18T12:55:17;5.40;27.40
1103;DHT22;538;42.654;23.376;2022-12-18T12:57:52;5.40;27.80
1103;DHT22;538;42.654;23.376;2022-12-18T13:00:25;5.40;27.70
1103;DHT22;538;42.654;23.376;2022-12-18T13:03:03;5.30;28.00
1103;DHT22;538;42.654;23.376;2022-12-18T13:05:38;5.30;28.20
1103;DHT22;538;42.654;23.376;2022-12-18T13:08:09;5.20;28.00
1103;DHT22;538;42.654;23.376;2022-12-18T13:10:38;5.20;28.50
1103;DHT22;538;42.654;23.376;2022-12-18T13:13:07;4.70;28.80
1103;DHT22;538;42.654;23.376;2022-12-18T13:15:38;5.30;28.90
1103;DHT22;538;42.654;23.376;2022-12-18T13:18:15;5.30;28.40
1103;DHT22;538;42.654;23.376;2022-12-18T13:20:45;5.30;28.70
1103;DHT22;538;42.654;23.376;2022-12-18T13:23:27;5.10;28.80
1103;DHT22;538;42.654;23.376;2022-12-18T13:25:56;5.10;28.80
1103;DHT22;538;42.654;23.376;2022-12-18T13:28:50;5.10;28.20
1103;DHT22;538;42.654;23.376;2022-12-18T13:31:12;5.10;28.20
1103;DHT22;538;42.654;23.376;2022-12-18T13:33:43;5.20;28.30
1103;DHT22;538;42.654;23.376;2022-12-18T13:36:23;5.10;28.20
1103;DHT22;538;42.654;23.376;2022-12-18T13:39:11;5.20;28.50
1103;DHT22;538;42.654;23.376;2022-12-18T13:41:40;5.10;28.60
1103;DHT22;538;42.654;23.376;2022-12-18T13:44:12;5.10;28.50
1103;DHT22;538;42.654;23.376;2022-12-18T13:46:43;5.20;29.00
1103;DHT22;538;42.654;23.376;2022-12-18T13:49:22;5.10;28.70
1103;DHT22;538;42.654;23.376;2022-12-18T13:51:52;5.10;28.10
1103;DHT22;538;42.654;23.376;2022-12-18T13:54:25;5.10;28.60
1103;DHT22;538;42.654;23.376;2022-12-18T13:56:55;5.10;28.60
1103;DHT22;538;42.654;23.376;2022-12-18T13:59:25;5.00;28.70
1103;DHT22;538;42.654;23.376;2022-12-18T14:01:54;5.10;29.00
1103;DHT22;538;42.654;23.376;2022-12-18T14:04:26;5.10;28.90
1103;DHT22;538;42.654;23.376;2022-12-18T14:06:56;5.10;28.60
1103;DHT22;538;42.654;23.376;2022-12-18T14:09:30;5.10;29.00
1103;DHT22;538;42.654;23.376;2022-12-18T14:11:57;5.10;29.10
1103;DHT22;538;42.654;23.376;2022-12-18T14:14:41;5.10;28.90
1103;DHT22;538;42.654;23.376;2022-12-18T14:17:09;5.10;28.90
1103;DHT22;538;42.654;23.376;2022-12-18T14:19:41;5.10;29.00
1103;DHT22;538;42.654;23.376;2022-12-18T14:22:15;5.20;29.40
1103;DHT22;538;42.654;23.376;2022-12-18T14:24:42;5.20;28.30
1103;DHT22;538;42.654;23.376;2022-12-18T14:27:20;5.20;27.70
1103;DHT22;538;42.654;23.376;2022-12-18T14:29:48;5.00;28.20
1103;DHT22;538;42.654;23.376;2022-12-18T14:32:17;5.00;27.40
1103;DHT22;538;42.654;23.376;2022-12-18T14:34:47;5.00;27.40
1103;DHT22;538;42.654;23.376;2022-12-18T14:37:17;4.90;26.20
1103;DHT22;538;42.654;23.376;2022-12-18T14:39:55;4.90;26.10
1103;DHT22;538;42.654;23.376;2022-12-18T14:42:24;4.90;26.30
1103;DHT22;538;42.654;23.376;2022-12-18T14:47:55;4.90;26.40
1103;DHT22;538;42.654;23.376;2022-12-18T14:50:24;4.90;26.20
1103;DHT22;538;42.654;23.376;2022-12-18T14:52:52;4.80;26.20
1103;DHT22;538;42.654;23.376;2022-12-18T14:55:20;4.80;25.60
1103;DHT22;538;42.654;23.376;2022-12-18T14:57:51;4.80;25.60
1103;DHT22;538;42.654;23.376;2022-12-18T15:00:21;4.80;24.80
1103;DHT22;538;42.654;23.376;2022-12-18T15:02:51;4.70;24.40
1103;DHT22;538;42.654;23.376;2022-12-18T15:05:24;4.70;24.40
1103;DHT22;538;42.654;23.376;2022-12-18T15:07:53;5.10;24.80
1103;DHT22;538;42.654;23.376;2022-12-18T15:10:22;4.70;24.50
1103;DHT22;538;42.654;23.376;2022-12-18T15:13:05;4.70;24.40
1103;DHT22;538;42.654;23.376;2022-12-18T15:15:49;4.70;24.40
1103;DHT22;538;42.654;23.376;2022-12-18T15:18:18;4.70;23.90
1103;DHT22;538;42.654;23.376;2022-12-18T15:20:49;4.80;24.10
1103;DHT22;538;42.654;23.376;2022-12-18T15:23:19;4.80;24.50
1103;DHT22;538;42.654;23.376;2022-12-18T15:25:48;4.80;22.80
1103;DHT22;538;42.654;23.376;2022-12-18T15:28:21;4.70;22.40
1103;DHT22;538;42.654;23.376;2022-12-18T15:31:01;4.70;22.40
1103;DHT22;538;42.654;23.376;2022-12-18T15:33:33;4.70;22.60
1103;DHT22;538;42.654;23.376;2022-12-18T15:36:03;4.80;22.40
1103;DHT22;538;42.654;23.376;2022-12-18T15:38:31;4.70;22.30
1103;DHT22;538;42.654;23.376;2022-12-18T15:40:59;4.90;22.50
1103;DHT22;538;42.654;23.376;2022-12-18T15:43:29;4.80;22.80
1103;DHT22;538;42.654;23.376;2022-12-18T15:46:03;4.80;22.40
1103;DHT22;538;42.654;23.376;2022-12-18T15:48:32;4.90;21.90
1103;DHT22;538;42.654;23.376;2022-12-18T15:51:01;4.70;21.60
1103;DHT22;538;42.654;23.376;2022-12-18T15:53:32;5.00;21.90
1103;DHT22;538;42.654;23.376;2022-12-18T15:56:00;4.80;21.90
1103;DHT22;538;42.654;23.376;2022-12-18T15:58:44;4.90;22.40
1103;DHT22;538;42.654;23.376;2022-12-18T16:01:25;4.80;22.10
1103;DHT22;538;42.654;23.376;2022-12-18T16:03:52;4.80;22.20
1103;DHT22;538;42.654;23.376;2022-12-18T16:06:21;4.80;21.30
1103;DHT22;538;42.654;23.376;2022-12-18T16:08:48;4.70;21.70
1103;DHT22;538;42.654;23.376;2022-12-18T16:11:21;4.50;21.90
1103;DHT22;538;42.654;23.376;2022-12-18T16:14:04;4.50;22.20
1103;DHT22;538;42.654;23.376;2022-12-18T16:16:32;4.50;22.20
1103;DHT22;538;42.654;23.376;2022-12-18T16:18:59;4.50;22.60
1103;DHT22;538;42.654;23.376;2022-12-18T16:21:27;4.40;23.10
1103;DHT22;538;42.654;23.376;2022-12-18T16:23:54;4.40;23.50
1103;DHT22;538;42.654;23.376;2022-12-18T16:26:22;4.30;24.20
1103;DHT22;538;42.654;23.376;2022-12-18T16:28:49;4.40;23.90
1103;DHT22;538;42.654;23.376;2022-12-18T16:31:17;4.20;24.20
1103;DHT22;538;42.654;23.376;2022-12-18T16:33:44;4.10;24.50
1103;DHT22;538;42.654;23.376;2022-12-18T16:36:11;4.10;24.80
1103;DHT22;538;42.654;23.376;2022-12-18T16:38:41;4.20;25.50
1103;DHT22;538;42.654;23.376;2022-12-18T16:41:18;4.20;24.90
1103;DHT22;538;42.654;23.376;2022-12-18T16:43:57;4.20;24.50